Terminal Aerodrome Forecast
Issued by NWS

Home | Current Version | Previous Version | Text Only | Print | Product List | Glossary On
Versions: 1 2 3 4 5 6 7 8 9 10 11 12 13 14 15
000
FTUS45 KTFX 270117 AAA
TAFGTF
TAF AMD
KGTF 270117Z 2701/2724 28010KT P6SM SCT080 BKN150
      TEMPO 2708/2710 VRB15G25KT -TSRA BKN060CB
     FM271000 27007KT P6SM SCT070 BKN150
     FM271700 26010KT P6SM -SHRA BKN070
     FM272100 28011KT P6SM SCT070 BKN120=

USA.gov is the U.S. government's official web portal to all federal, state and local government web resources and services.